sensor_id;sensor_type;location;lat;lon;timestamp;temperature;humidity
50738;DHT22;36703;48.154;17.126;2023-06-14T00:00:37;23.00;37.30
50738;DHT22;36703;48.154;17.126;2023-06-14T00:04:42;23.00;37.20
50738;DHT22;36703;48.154;17.126;2023-06-14T00:08:44;22.90;37.20
50738;DHT22;36703;48.154;17.126;2023-06-14T00:12:46;22.90;37.30
50738;DHT22;36703;48.154;17.126;2023-06-14T00:16:47;22.90;37.20
50738;DHT22;36703;48.154;17.126;2023-06-14T00:20:49;22.80;37.20
50738;DHT22;36703;48.154;17.126;2023-06-14T00:24:52;22.90;37.10
50738;DHT22;36703;48.154;17.126;2023-06-14T00:28:54;22.80;36.90
50738;DHT22;36703;48.154;17.126;2023-06-14T00:32:57;22.80;36.90
50738;DHT22;36703;48.154;17.126;2023-06-14T00:37:01;22.80;36.90
50738;DHT22;36703;48.154;17.126;2023-06-14T00:41:03;22.80;36.80
50738;DHT22;36703;48.154;17.126;2023-06-14T00:45:05;22.70;36.70
50738;DHT22;36703;48.154;17.126;2023-06-14T00:49:07;22.70;36.70
50738;DHT22;36703;48.154;17.126;2023-06-14T00:53:08;22.60;36.70
50738;DHT22;36703;48.154;17.126;2023-06-14T00:57:10;22.50;36.80
50738;DHT22;36703;48.154;17.126;2023-06-14T01:01:12;22.60;36.70
50738;DHT22;36703;48.154;17.126;2023-06-14T01:05:16;22.50;36.60
50738;DHT22;36703;48.154;17.126;2023-06-14T01:09:30;22.50;36.60
50738;DHT22;36703;48.154;17.126;2023-06-14T01:13:45;22.60;36.50
50738;DHT22;36703;48.154;17.126;2023-06-14T01:17:49;22.50;37.10
50738;DHT22;36703;48.154;17.126;2023-06-14T01:21:52;22.40;36.40
50738;DHT22;36703;48.154;17.126;2023-06-14T01:25:54;22.30;36.50
50738;DHT22;36703;48.154;17.126;2023-06-14T01:29:56;22.40;36.50
50738;DHT22;36703;48.154;17.126;2023-06-14T01:33:58;22.40;36.60
50738;DHT22;36703;48.154;17.126;2023-06-14T01:38:00;22.40;36.70
50738;DHT22;36703;48.154;17.126;2023-06-14T01:42:06;22.30;36.60
50738;DHT22;36703;48.154;17.126;2023-06-14T01:46:08;22.30;36.80
50738;DHT22;36703;48.154;17.126;2023-06-14T01:50:11;22.30;36.80
50738;DHT22;36703;48.154;17.126;2023-06-14T01:54:12;22.30;37.00
50738;DHT22;36703;48.154;17.126;2023-06-14T01:58:15;22.20;37.30
50738;DHT22;36703;48.154;17.126;2023-06-14T02:02:20;22.10;37.40
50738;DHT22;36703;48.154;17.126;2023-06-14T02:06:21;22.00;37.70
50738;DHT22;36703;48.154;17.126;2023-06-14T02:10:23;22.00;37.80
50738;DHT22;36703;48.154;17.126;2023-06-14T02:14:24;21.90;38.00
50738;DHT22;36703;48.154;17.126;2023-06-14T02:18:26;21.80;37.90
50738;DHT22;36703;48.154;17.126;2023-06-14T02:22:28;21.80;38.10
50738;DHT22;36703;48.154;17.126;2023-06-14T02:26:30;21.80;38.30
50738;DHT22;36703;48.154;17.126;2023-06-14T02:30:33;21.70;38.40
50738;DHT22;36703;48.154;17.126;2023-06-14T02:34:34;21.70;38.70
50738;DHT22;36703;48.154;17.126;2023-06-14T02:38:36;21.70;38.90
50738;DHT22;36703;48.154;17.126;2023-06-14T02:42:38;21.70;38.90
50738;DHT22;36703;48.154;17.126;2023-06-14T02:46:39;21.60;39.10
50738;DHT22;36703;48.154;17.126;2023-06-14T02:50:41;21.50;39.30
50738;DHT22;36703;48.154;17.126;2023-06-14T02:54:43;21.50;39.40
50738;DHT22;36703;48.154;17.126;2023-06-14T02:58:45;21.50;39.40
50738;DHT22;36703;48.154;17.126;2023-06-14T03:02:47;21.50;39.40
50738;DHT22;36703;48.154;17.126;2023-06-14T03:06:49;21.50;39.30
50738;DHT22;36703;48.154;17.126;2023-06-14T03:10:53;21.50;39.10
50738;DHT22;36703;48.154;17.126;2023-06-14T03:14:57;21.50;39.00
50738;DHT22;36703;48.154;17.126;2023-06-14T03:19:05;21.50;39.00
50738;DHT22;36703;48.154;17.126;2023-06-14T03:23:08;21.50;39.00
50738;DHT22;36703;48.154;17.126;2023-06-14T03:27:10;21.50;39.00
50738;DHT22;36703;48.154;17.126;2023-06-14T03:31:14;21.50;39.00
50738;DHT22;36703;48.154;17.126;2023-06-14T03:35:17;21.50;38.80
50738;DHT22;36703;48.154;17.126;2023-06-14T03:39:20;21.50;38.80
50738;DHT22;36703;48.154;17.126;2023-06-14T03:43:22;21.40;39.30
50738;DHT22;36703;48.154;17.126;2023-06-14T03:47:24;21.30;38.80
50738;DHT22;36703;48.154;17.126;2023-06-14T03:51:26;21.30;38.90
50738;DHT22;36703;48.154;17.126;2023-06-14T03:55:28;21.30;39.20
50738;DHT22;36703;48.154;17.126;2023-06-14T03:59:33;21.20;39.20
50738;DHT22;36703;48.154;17.126;2023-06-14T04:03:34;21.20;39.40
50738;DHT22;36703;48.154;17.126;2023-06-14T04:07:37;21.20;39.30
50738;DHT22;36703;48.154;17.126;2023-06-14T04:11:43;21.20;39.30
50738;DHT22;36703;48.154;17.126;2023-06-14T04:15:45;21.30;39.20
50738;DHT22;36703;48.154;17.126;2023-06-14T04:19:51;21.30;39.20
50738;DHT22;36703;48.154;17.126;2023-06-14T04:23:52;21.30;39.10
50738;DHT22;36703;48.154;17.126;2023-06-14T04:27:58;21.30;39.10
50738;DHT22;36703;48.154;17.126;2023-06-14T04:32:01;21.40;39.00
50738;DHT22;36703;48.154;17.126;2023-06-14T04:36:03;21.40;38.90
50738;DHT22;36703;48.154;17.126;2023-06-14T04:40:07;21.30;39.10
50738;DHT22;36703;48.154;17.126;2023-06-14T04:44:10;21.20;39.10
50738;DHT22;36703;48.154;17.126;2023-06-14T04:48:17;21.30;39.20
50738;DHT22;36703;48.154;17.126;2023-06-14T04:52:23;21.40;39.20
50738;DHT22;36703;48.154;17.126;2023-06-14T04:56:28;21.40;39.00
50738;DHT22;36703;48.154;17.126;2023-06-14T05:00:31;21.40;38.90
50738;DHT22;36703;48.154;17.126;2023-06-14T05:04:33;21.40;38.90
50738;DHT22;36703;48.154;17.126;2023-06-14T05:08:35;21.40;38.90
50738;DHT22;36703;48.154;17.126;2023-06-14T05:12:37;21.50;38.80
50738;DHT22;36703;48.154;17.126;2023-06-14T05:16:41;21.40;39.80
50738;DHT22;36703;48.154;17.126;2023-06-14T05:20:42;21.30;40.60
50738;DHT22;36703;48.154;17.126;2023-06-14T05:24:44;21.30;40.20
50738;DHT22;36703;48.154;17.126;2023-06-14T05:28:46;21.40;39.80
50738;DHT22;36703;48.154;17.126;2023-06-14T05:32:47;21.40;39.70
50738;DHT22;36703;48.154;17.126;2023-06-14T05:36:49;21.40;39.80
50738;DHT22;36703;48.154;17.126;2023-06-14T05:40:50;21.30;39.90
50738;DHT22;36703;48.154;17.126;2023-06-14T05:44:52;21.40;40.00
50738;DHT22;36703;48.154;17.126;2023-06-14T05:48:54;21.50;40.20
50738;DHT22;36703;48.154;17.126;2023-06-14T05:52:56;21.60;40.30
50738;DHT22;36703;48.154;17.126;2023-06-14T05:56:58;21.60;40.90
50738;DHT22;36703;48.154;17.126;2023-06-14T06:01:02;21.60;40.80
50738;DHT22;36703;48.154;17.126;2023-06-14T06:05:04;21.60;41.00
50738;DHT22;36703;48.154;17.126;2023-06-14T06:09:07;21.70;41.00
50738;DHT22;36703;48.154;17.126;2023-06-14T06:13:08;21.80;41.10
50738;DHT22;36703;48.154;17.126;2023-06-14T06:17:10;21.90;41.10
50738;DHT22;36703;48.154;17.126;2023-06-14T06:21:11;21.90;40.90
50738;DHT22;36703;48.154;17.126;2023-06-14T06:25:13;21.90;40.90
50738;DHT22;36703;48.154;17.126;2023-06-14T06:29:15;21.90;41.00
50738;DHT22;36703;48.154;17.126;2023-06-14T06:33:17;21.90;41.00
50738;DHT22;36703;48.154;17.126;2023-06-14T06:37:19;22.00;41.00
50738;DHT22;36703;48.154;17.126;2023-06-14T06:41:21;22.00;41.10
50738;DHT22;36703;48.154;17.126;2023-06-14T06:45:22;22.10;41.00
50738;DHT22;36703;48.154;17.126;2023-06-14T06:49:24;22.10;41.20
50738;DHT22;36703;48.154;17.126;2023-06-14T06:53:26;22.10;41.40
50738;DHT22;36703;48.154;17.126;2023-06-14T06:57:27;22.20;41.60
50738;DHT22;36703;48.154;17.126;2023-06-14T07:01:30;22.30;41.40
50738;DHT22;36703;48.154;17.126;2023-06-14T07:05:34;22.30;41.30
50738;DHT22;36703;48.154;17.126;2023-06-14T07:09:36;22.40;41.40
50738;DHT22;36703;48.154;17.126;2023-06-14T07:13:38;22.50;41.50
50738;DHT22;36703;48.154;17.126;2023-06-14T07:17:39;22.60;41.50
50738;DHT22;36703;48.154;17.126;2023-06-14T07:21:41;22.60;41.60
50738;DHT22;36703;48.154;17.126;2023-06-14T07:25:43;22.70;41.70
50738;DHT22;36703;48.154;17.126;2023-06-14T07:29:44;22.70;41.60
50738;DHT22;36703;48.154;17.126;2023-06-14T07:33:46;22.80;41.60
50738;DHT22;36703;48.154;17.126;2023-06-14T07:37:48;22.90;41.60
50738;DHT22;36703;48.154;17.126;2023-06-14T07:41:49;23.00;41.40
50738;DHT22;36703;48.154;17.126;2023-06-14T07:45:51;23.00;41.40
50738;DHT22;36703;48.154;17.126;2023-06-14T07:49:53;23.00;41.10
50738;DHT22;36703;48.154;17.126;2023-06-14T07:53:54;23.00;41.10
50738;DHT22;36703;48.154;17.126;2023-06-14T07:57:56;23.10;41.10
50738;DHT22;36703;48.154;17.126;2023-06-14T08:01:57;23.20;41.10
50738;DHT22;36703;48.154;17.126;2023-06-14T08:05:59;23.30;40.90
50738;DHT22;36703;48.154;17.126;2023-06-14T08:10:01;23.40;40.10
50738;DHT22;36703;48.154;17.126;2023-06-14T08:14:03;23.50;39.50
50738;DHT22;36703;48.154;17.126;2023-06-14T08:18:05;23.60;39.30
50738;DHT22;36703;48.154;17.126;2023-06-14T08:22:06;23.60;38.90
50738;DHT22;36703;48.154;17.126;2023-06-14T08:26:09;23.80;38.50
50738;DHT22;36703;48.154;17.126;2023-06-14T08:30:11;23.90;37.80
50738;DHT22;36703;48.154;17.126;2023-06-14T08:34:13;23.90;37.30
50738;DHT22;36703;48.154;17.126;2023-06-14T08:38:15;23.90;37.00
50738;DHT22;36703;48.154;17.126;2023-06-14T08:42:18;23.90;36.80
50738;DHT22;36703;48.154;17.126;2023-06-14T08:46:25;24.00;36.80
50738;DHT22;36703;48.154;17.126;2023-06-14T08:50:28;24.20;36.90
50738;DHT22;36703;48.154;17.126;2023-06-14T08:54:33;24.30;36.80
50738;DHT22;36703;48.154;17.126;2023-06-14T08:58:37;24.50;36.70
50738;DHT22;36703;48.154;17.126;2023-06-14T09:02:39;24.60;36.80
50738;DHT22;36703;48.154;17.126;2023-06-14T09:06:47;24.70;36.80
50738;DHT22;36703;48.154;17.126;2023-06-14T09:10:54;24.70;36.80
50738;DHT22;36703;48.154;17.126;2023-06-14T09:14:56;24.70;36.80
50738;DHT22;36703;48.154;17.126;2023-06-14T09:18:58;24.80;36.90
50738;DHT22;36703;48.154;17.126;2023-06-14T09:23:00;24.90;37.10
50738;DHT22;36703;48.154;17.126;2023-06-14T09:27:02;25.00;37.00
50738;DHT22;36703;48.154;17.126;2023-06-14T09:31:04;25.00;37.00
50738;DHT22;36703;48.154;17.126;2023-06-14T09:35:07;25.00;37.20
50738;DHT22;36703;48.154;17.126;2023-06-14T09:39:09;25.00;37.10
50738;DHT22;36703;48.154;17.126;2023-06-14T09:43:11;25.00;37.00
50738;DHT22;36703;48.154;17.126;2023-06-14T09:47:12;25.10;36.80
50738;DHT22;36703;48.154;17.126;2023-06-14T09:51:17;25.10;36.60
50738;DHT22;36703;48.154;17.126;2023-06-14T09:55:19;25.20;36.40
50738;DHT22;36703;48.154;17.126;2023-06-14T09:59:24;25.40;36.30
50738;DHT22;36703;48.154;17.126;2023-06-14T10:03:30;25.50;36.60
50738;DHT22;36703;48.154;17.126;2023-06-14T10:07:42;25.50;35.90
50738;DHT22;36703;48.154;17.126;2023-06-14T10:11:50;25.40;35.60
50738;DHT22;36703;48.154;17.126;2023-06-14T10:25:13;25.30;35.90
50738;DHT22;36703;48.154;17.126;2023-06-14T10:29:14;25.60;35.90
50738;DHT22;36703;48.154;17.126;2023-06-14T10:33:16;25.80;35.70
50738;DHT22;36703;48.154;17.126;2023-06-14T10:37:17;26.10;35.60
50738;DHT22;36703;48.154;17.126;2023-06-14T10:41:19;26.40;35.40
50738;DHT22;36703;48.154;17.126;2023-06-14T10:45:21;26.40;35.10
50738;DHT22;36703;48.154;17.126;2023-06-14T10:49:42;26.40;34.90
50738;DHT22;36703;48.154;17.126;2023-06-14T10:53:46;26.40;34.70
50738;DHT22;36703;48.154;17.126;2023-06-14T10:57:52;26.40;34.80
50738;DHT22;36703;48.154;17.126;2023-06-14T11:06:14;26.30;34.90
50738;DHT22;36703;48.154;17.126;2023-06-14T11:14:21;26.20;35.60
50738;DHT22;36703;48.154;17.126;2023-06-14T11:18:23;26.10;35.10
50738;DHT22;36703;48.154;17.126;2023-06-14T11:22:28;26.00;35.10
50738;DHT22;36703;48.154;17.126;2023-06-14T11:26:31;26.00;35.20
50738;DHT22;36703;48.154;17.126;2023-06-14T11:30:34;25.90;35.00
50738;DHT22;36703;48.154;17.126;2023-06-14T11:34:36;25.90;35.10
50738;DHT22;36703;48.154;17.126;2023-06-14T11:38:37;25.90;35.10
50738;DHT22;36703;48.154;17.126;2023-06-14T11:42:40;25.90;35.20
50738;DHT22;36703;48.154;17.126;2023-06-14T11:46:42;25.80;35.00
50738;DHT22;36703;48.154;17.126;2023-06-14T11:50:44;25.90;35.00
50738;DHT22;36703;48.154;17.126;2023-06-14T11:54:47;26.00;35.00
50738;DHT22;36703;48.154;17.126;2023-06-14T11:58:49;26.00;34.90
50738;DHT22;36703;48.154;17.126;2023-06-14T12:02:55;26.00;34.60
50738;DHT22;36703;48.154;17.126;2023-06-14T12:06:57;26.10;34.10
50738;DHT22;36703;48.154;17.126;2023-06-14T12:10:59;26.00;34.00
50738;DHT22;36703;48.154;17.126;2023-06-14T12:15:03;26.10;34.30
50738;DHT22;36703;48.154;17.126;2023-06-14T12:19:16;26.20;33.90
50738;DHT22;36703;48.154;17.126;2023-06-14T12:23:18;26.30;33.70
50738;DHT22;36703;48.154;17.126;2023-06-14T12:27:21;26.30;33.60
50738;DHT22;36703;48.154;17.126;2023-06-14T12:31:25;26.30;33.40
50738;DHT22;36703;48.154;17.126;2023-06-14T12:35:56;26.40;33.30
50738;DHT22;36703;48.154;17.126;2023-06-14T12:48:10;26.70;32.90
50738;DHT22;36703;48.154;17.126;2023-06-14T12:59:39;26.80;33.00
50738;DHT22;36703;48.154;17.126;2023-06-14T13:23:05;26.60;33.10
50738;DHT22;36703;48.154;17.126;2023-06-14T13:28:52;26.60;33.20
50738;DHT22;36703;48.154;17.126;2023-06-14T13:40:13;26.70;33.30
50738;DHT22;36703;48.154;17.126;2023-06-14T13:45:31;26.70;33.30
50738;DHT22;36703;48.154;17.126;2023-06-14T13:57:22;26.50;33.30
50738;DHT22;36703;48.154;17.126;2023-06-14T14:14:55;26.50;33.20
50738;DHT22;36703;48.154;17.126;2023-06-14T14:26:36;26.40;33.30
50738;DHT22;36703;48.154;17.126;2023-06-14T14:31:31;26.40;33.40
50738;DHT22;36703;48.154;17.126;2023-06-14T14:37:30;26.40;33.10
50738;DHT22;36703;48.154;17.126;2023-06-14T14:48:28;26.20;33.60
50738;DHT22;36703;48.154;17.126;2023-06-14T14:52:29;27.50;39.50
50738;DHT22;36703;48.154;17.126;2023-06-14T14:56:31;26.10;34.20
50738;DHT22;36703;48.154;17.126;2023-06-14T15:00:49;26.20;35.40
50738;DHT22;36703;48.154;17.126;2023-06-14T15:05:38;26.60;38.70
50738;DHT22;36703;48.154;17.126;2023-06-14T15:10:56;28.20;36.30
50738;DHT22;36703;48.154;17.126;2023-06-14T15:16:12;27.10;35.70
50738;DHT22;36703;48.154;17.126;2023-06-14T15:21:26;27.10;35.90
50738;DHT22;36703;48.154;17.126;2023-06-14T15:26:38;27.70;38.10
50738;DHT22;36703;48.154;17.126;2023-06-14T15:31:41;27.00;36.80
50738;DHT22;36703;48.154;17.126;2023-06-14T15:36:01;26.60;36.40
50738;DHT22;36703;48.154;17.126;2023-06-14T15:40:22;27.10;36.50
50738;DHT22;36703;48.154;17.126;2023-06-14T15:45:30;27.00;36.00
50738;DHT22;36703;48.154;17.126;2023-06-14T15:49:58;28.00;42.20
50738;DHT22;36703;48.154;17.126;2023-06-14T15:54:08;26.40;40.60
50738;DHT22;36703;48.154;17.126;2023-06-14T15:58:16;27.40;42.20
50738;DHT22;36703;48.154;17.126;2023-06-14T16:02:35;26.30;34.60
50738;DHT22;36703;48.154;17.126;2023-06-14T16:07:03;26.60;36.20
50738;DHT22;36703;48.154;17.126;2023-06-14T16:11:25;27.30;39.20
50738;DHT22;36703;48.154;17.126;2023-06-14T16:16:02;27.50;40.30
50738;DHT22;36703;48.154;17.126;2023-06-14T16:20:47;27.40;37.50
50738;DHT22;36703;48.154;17.126;2023-06-14T16:24:52;26.70;34.60
50738;DHT22;36703;48.154;17.126;2023-06-14T16:29:12;26.10;34.20
50738;DHT22;36703;48.154;17.126;2023-06-14T16:34:09;26.80;37.80
50738;DHT22;36703;48.154;17.126;2023-06-14T16:38:53;26.50;34.50
50738;DHT22;36703;48.154;17.126;2023-06-14T16:49:47;27.60;35.40
50738;DHT22;36703;48.154;17.126;2023-06-14T16:54:26;28.00;35.70
50738;DHT22;36703;48.154;17.126;2023-06-14T16:58:28;26.10;34.50
50738;DHT22;36703;48.154;17.126;2023-06-14T17:02:29;26.00;34.60
50738;DHT22;36703;48.154;17.126;2023-06-14T17:06:31;26.10;34.70
50738;DHT22;36703;48.154;17.126;2023-06-14T17:10:33;26.00;34.60
50738;DHT22;36703;48.154;17.126;2023-06-14T17:14:34;26.00;34.70
50738;DHT22;36703;48.154;17.126;2023-06-14T17:18:36;26.00;34.80
50738;DHT22;36703;48.154;17.126;2023-06-14T17:22:38;26.10;34.80
50738;DHT22;36703;48.154;17.126;2023-06-14T17:26:42;26.00;34.70
50738;DHT22;36703;48.154;17.126;2023-06-14T17:30:43;26.00;34.70
50738;DHT22;36703;48.154;17.126;2023-06-14T17:34:45;26.00;34.90
50738;DHT22;36703;48.154;17.126;2023-06-14T17:38:46;25.90;35.10
50738;DHT22;36703;48.154;17.126;2023-06-14T17:42:48;25.80;35.50
50738;DHT22;36703;48.154;17.126;2023-06-14T17:46:50;25.70;35.70
50738;DHT22;36703;48.154;17.126;2023-06-14T17:50:52;25.70;35.90
50738;DHT22;36703;48.154;17.126;2023-06-14T17:54:54;25.70;36.00
50738;DHT22;36703;48.154;17.126;2023-06-14T17:58:56;25.60;36.10
50738;DHT22;36703;48.154;17.126;2023-06-14T18:02:57;25.60;36.90
50738;DHT22;36703;48.154;17.126;2023-06-14T18:06:59;25.60;36.30
50738;DHT22;36703;48.154;17.126;2023-06-14T18:11:01;25.50;36.50
50738;DHT22;36703;48.154;17.126;2023-06-14T18:15:03;25.60;36.80
50738;DHT22;36703;48.154;17.126;2023-06-14T18:19:05;25.70;36.90
50738;DHT22;36703;48.154;17.126;2023-06-14T18:23:06;25.70;37.00
50738;DHT22;36703;48.154;17.126;2023-06-14T18:27:08;25.70;37.10
50738;DHT22;36703;48.154;17.126;2023-06-14T18:31:12;25.80;37.30
50738;DHT22;36703;48.154;17.126;2023-06-14T18:35:14;25.70;37.40
50738;DHT22;36703;48.154;17.126;2023-06-14T18:39:16;25.60;37.50
50738;DHT22;36703;48.154;17.126;2023-06-14T18:43:18;25.60;37.70
50738;DHT22;36703;48.154;17.126;2023-06-14T18:47:20;25.70;37.80
50738;DHT22;36703;48.154;17.126;2023-06-14T18:51:21;25.70;38.00
50738;DHT22;36703;48.154;17.126;2023-06-14T18:55:23;25.70;37.90
50738;DHT22;36703;48.154;17.126;2023-06-14T18:59:25;25.70;37.90
50738;DHT22;36703;48.154;17.126;2023-06-14T19:03:27;25.60;37.80
50738;DHT22;36703;48.154;17.126;2023-06-14T19:07:28;25.50;37.80
50738;DHT22;36703;48.154;17.126;2023-06-14T19:11:30;25.30;37.80
50738;DHT22;36703;48.154;17.126;2023-06-14T19:15:31;25.10;37.90
50738;DHT22;36703;48.154;17.126;2023-06-14T19:19:33;25.00;38.60
50738;DHT22;36703;48.154;17.126;2023-06-14T19:23:36;25.00;37.90
50738;DHT22;36703;48.154;17.126;2023-06-14T19:27:38;24.90;37.80
50738;DHT22;36703;48.154;17.126;2023-06-14T19:31:40;24.90;37.70
50738;DHT22;36703;48.154;17.126;2023-06-14T19:35:42;24.90;37.70
50738;DHT22;36703;48.154;17.126;2023-06-14T19:39:43;24.80;37.60
50738;DHT22;36703;48.154;17.126;2023-06-14T19:43:45;24.80;37.60
50738;DHT22;36703;48.154;17.126;2023-06-14T19:47:48;24.80;37.50
50738;DHT22;36703;48.154;17.126;2023-06-14T19:51:49;24.80;37.50
50738;DHT22;36703;48.154;17.126;2023-06-14T19:55:51;24.90;37.40
50738;DHT22;36703;48.154;17.126;2023-06-14T19:59:52;24.90;37.40
50738;DHT22;36703;48.154;17.126;2023-06-14T20:03:54;24.90;37.40
50738;DHT22;36703;48.154;17.126;2023-06-14T20:07:56;24.80;37.50
50738;DHT22;36703;48.154;17.126;2023-06-14T20:11:58;24.80;37.60
50738;DHT22;36703;48.154;17.126;2023-06-14T20:16:00;24.80;37.70
50738;DHT22;36703;48.154;17.126;2023-06-14T20:20:01;24.80;37.80
50738;DHT22;36703;48.154;17.126;2023-06-14T20:24:03;24.80;37.80
50738;DHT22;36703;48.154;17.126;2023-06-14T20:28:05;24.80;37.80
50738;DHT22;36703;48.154;17.126;2023-06-14T20:32:07;24.80;37.90
50738;DHT22;36703;48.154;17.126;2023-06-14T20:36:09;24.80;37.90
50738;DHT22;36703;48.154;17.126;2023-06-14T20:40:22;24.10;38.80
50738;DHT22;36703;48.154;17.126;2023-06-14T20:44:24;24.70;38.10
50738;DHT22;36703;48.154;17.126;2023-06-14T20:48:33;24.70;38.10
50738;DHT22;36703;48.154;17.126;2023-06-14T20:52:35;24.50;38.30
50738;DHT22;36703;48.154;17.126;2023-06-14T20:56:37;24.50;38.50
50738;DHT22;36703;48.154;17.126;2023-06-14T21:00:38;24.50;38.50
50738;DHT22;36703;48.154;17.126;2023-06-14T21:04:44;24.50;38.60
50738;DHT22;36703;48.154;17.126;2023-06-14T21:08:46;24.50;38.70
50738;DHT22;36703;48.154;17.126;2023-06-14T21:12:47;24.40;38.80
50738;DHT22;36703;48.154;17.126;2023-06-14T21:16:49;24.40;38.90
50738;DHT22;36703;48.154;17.126;2023-06-14T21:20:51;24.40;38.90
50738;DHT22;36703;48.154;17.126;2023-06-14T21:24:53;24.40;38.90
50738;DHT22;36703;48.154;17.126;2023-06-14T21:28:54;24.30;39.00
50738;DHT22;36703;48.154;17.126;2023-06-14T21:32:56;24.20;39.00
50738;DHT22;36703;48.154;17.126;2023-06-14T21:36:57;24.10;39.00
50738;DHT22;36703;48.154;17.126;2023-06-14T21:41:00;24.10;38.90
50738;DHT22;36703;48.154;17.126;2023-06-14T21:45:01;24.10;39.00
50738;DHT22;36703;48.154;17.126;2023-06-14T21:49:10;24.00;39.20
50738;DHT22;36703;48.154;17.126;2023-06-14T21:53:11;24.00;39.30
50738;DHT22;36703;48.154;17.126;2023-06-14T21:57:13;23.90;39.30
50738;DHT22;36703;48.154;17.126;2023-06-14T22:01:14;23.80;39.40
50738;DHT22;36703;48.154;17.126;2023-06-14T22:05:17;23.80;39.30
50738;DHT22;36703;48.154;17.126;2023-06-14T22:09:19;23.80;39.20
50738;DHT22;36703;48.154;17.126;2023-06-14T22:13:21;23.70;39.30
50738;DHT22;36703;48.154;17.126;2023-06-14T22:17:23;23.60;39.50
50738;DHT22;36703;48.154;17.126;2023-06-14T22:21:27;23.40;39.70
50738;DHT22;36703;48.154;17.126;2023-06-14T22:25:30;23.40;40.00
50738;DHT22;36703;48.154;17.126;2023-06-14T22:29:31;23.30;40.20
50738;DHT22;36703;48.154;17.126;2023-06-14T22:33:36;23.30;40.40
50738;DHT22;36703;48.154;17.126;2023-06-14T22:37:43;23.30;40.50
50738;DHT22;36703;48.154;17.126;2023-06-14T22:41:44;23.30;40.60
50738;DHT22;36703;48.154;17.126;2023-06-14T22:45:48;23.40;40.90
50738;DHT22;36703;48.154;17.126;2023-06-14T22:49:52;23.30;41.10
50738;DHT22;36703;48.154;17.126;2023-06-14T22:53:54;23.30;41.20
50738;DHT22;36703;48.154;17.126;2023-06-14T22:57:56;23.30;41.20
50738;DHT22;36703;48.154;17.126;2023-06-14T23:01:59;23.30;41.10
50738;DHT22;36703;48.154;17.126;2023-06-14T23:06:02;23.30;41.00
50738;DHT22;36703;48.154;17.126;2023-06-14T23:10:05;23.20;40.90
50738;DHT22;36703;48.154;17.126;2023-06-14T23:14:07;23.20;41.00
50738;DHT22;36703;48.154;17.126;2023-06-14T23:18:08;23.20;41.00
50738;DHT22;36703;48.154;17.126;2023-06-14T23:22:11;23.10;40.90
50738;DHT22;36703;48.154;17.126;2023-06-14T23:26:17;23.10;41.00
50738;DHT22;36703;48.154;17.126;2023-06-14T23:30:21;23.10;41.10
50738;DHT22;36703;48.154;17.126;2023-06-14T23:34:27;23.10;41.30
50738;DHT22;36703;48.154;17.126;2023-06-14T23:38:30;23.00;41.30
50738;DHT22;36703;48.154;17.126;2023-06-14T23:42:32;23.00;41.50
50738;DHT22;36703;48.154;17.126;2023-06-14T23:46:34;23.00;41.60
50738;DHT22;36703;48.154;17.126;2023-06-14T23:50:36;22.90;41.60
50738;DHT22;36703;48.154;17.126;2023-06-14T23:54:37;22.90;41.80
50738;DHT22;36703;48.154;17.126;2023-06-14T23:58:40;22.80;41.80
